KOMA/OMA METAR and TAF weather

Enter ICAO airport designator
Station Type Date Time Source
KOMA METAR 2019/06/27 04:52 UTC NOAA

KOMA 270452Z 16010KT 10SM CLR 25/19 A3003 RMK AO2 SLP162 T02500194


Station Type Date Time Source
KOMA Decoded METAR 2019/06/27 04:52 UTC NOAA

OMAHA EPPLEY AIRFIELD, NE, United States (KOMA) 41-18N 095-54W 312M
Jun 27, 2019 - 12:52 AM EDT / 2019.06.27 0452 UTC
Wind: from the SSE (160 degrees) at 12 MPH (10 KT):0
Visibility: 10 mile(s):0
Sky conditions: clear
Temperature: 77.0 F (25.0 C)
Dew Point: 66.9 F (19.4 C)
Relative Humidity: 71%
Pressure (altimeter): 30.03 in. Hg (1016 hPa)
ob: KOMA 270452Z 16010KT 10SM CLR 25/19 A3003 RMK AO2 SLP162 T02500194
cycle: 5

Station Type Date Time Source
KOMA TAF 2019/06/26 18:42 UTC NOAA

TAF KOMA 261740Z 2618/2718 24010KT P6SM BKN250
FM262000 20010KT P6SM SCT250
FM271200 15008KT P6SM SCT100 BKN250
FM271500 15008KT P6SM BKN100

Example: see airport list